Bookmark and Share
Track history (hours):
 

Hagen

Last reported at 2014-Apr-16 01:24 UTC. Time now 2014-Apr-18 08:04 UTC.
Position N 37°50' W 009°35'.

Length 89 m; draft 5.9 m.

Type: Cargo ship. MMSI: 304010898.

NotesDate/timePositionNaut miles runAvg speedWind from/ knotsBaromVisibWave heightAir tempDewpointWater temp
2014-Apr-16 01:24N 37°50' W 009°35'8 9.3
2014-Apr-16 00:32N 37°42' W 009°34'11 9.1
2014-Apr-15 23:17N 37°31' W 009°30'10 9.3
2014-Apr-15 22:10N 37°21' W 009°27'8 9.3
2014-Apr-15 21:16N 37°13' W 009°25'205 8.3
2014-Apr-14 20:34N 35°60' W 005°27'8 8.3
2014-Apr-14 19:34N 35°55' W 005°19'1 0.9
2014-Apr-14 18:30N 35°54' W 005°19'0 0.0
2014-Apr-14 17:33N 35°54' W 005°19'0 0.0
2014-Apr-14 16:33N 35°54' W 005°19'0 0.0
2014-Apr-14 15:32N 35°54' W 005°19'0 0.0
2014-Apr-14 14:34N 35°54' W 005°19'1 1.4
2014-Apr-14 13:34N 35°55' W 005°18'1 0.5
2014-Apr-14 11:34N 35°56' W 005°19'1 0.5
2014-Apr-14 10:34N 35°56' W 005°19'1 1.0
2014-Apr-14 09:34N 35°57' W 005°18'1 1.1
2014-Apr-14 08:34N 35°56' W 005°19'0 0.4
2014-Apr-14 07:34N 35°56' W 005°19'5 4.6
2014-Apr-14 06:34N 35°57' W 005°14'  
2014-Apr-11 20:21N 37°11' E 005°08'27 8.3
2014-Apr-11 17:09N 37°14' E 005°41'5 8.5
2014-Apr-11 16:33N 37°15' E 005°47'8 8.0
2014-Apr-11 15:33N 37°16' E 005°57'9 8.8
2014-Apr-11 14:32N 37°18' E 006°08'10 9.2
2014-Apr-11 13:26N 37°19' E 006°21'17 8.8
2014-Apr-11 11:33N 37°22' E 006°42'356 8.5
2014-Apr-09 17:34N 36°45' E 014°06'8 8.3
2014-Apr-09 16:33N 36°43' E 014°16'8 8.1
2014-Apr-09 15:33N 36°40' E 014°25'8 7.6
2014-Apr-09 14:33N 36°38' E 014°35'8 7.9
2014-Apr-09 13:33N 36°36' E 014°44'12 8.5
2014-Apr-09 12:05N 36°32' E 014°59'5 8.3
2014-Apr-09 11:33N 36°31' E 015°04'8 8.2
2014-Apr-09 10:33N 36°31' E 015°15'8 8.2
2014-Apr-09 09:33N 36°30' E 015°25'8 7.9
2014-Apr-09 08:34N 36°30' E 015°35'8 7.8
2014-Apr-09 07:34N 36°30' E 015°44'8 8.3
2014-Apr-09 06:33N 36°30' E 015°55'9 8.7
2014-Apr-09 05:33N 36°30' E 016°05'406 8.6
2014-Apr-07 06:24N 36°01' E 024°28'8 9.0
2014-Apr-07 05:33N 36°00' E 024°37'9 8.5
2014-Apr-07 04:28N 36°01' E 024°49'8 8.4
2014-Apr-07 03:33N 36°00' E 024°58'8 8.5
2014-Apr-07 02:34N 35°60' E 025°09'9 8.7
2014-Apr-07 01:33N 35°60' E 025°19'9 8.8
2014-Apr-07 00:33N 35°59' E 025°30'9 8.8
2014-Apr-06 23:33N 35°59' E 025°41'9 8.7
2014-Apr-06 22:33N 35°59' E 025°52'8 8.4
2014-Apr-06 21:33N 35°59' E 026°02'9 8.5
2014-Apr-06 20:33N 35°58' E 026°13'  

Dump ship's entire track history

sailing weather and tide predictions

Hagen — V2PB3 — position and weather